Terminal Aerodrome Forecast
Issued by NWS Cleveland, OH

Home | Current Version | Previous Version | Graphics & Text | Print | Product List | Glossary Off
Versions: 1 2 3 4 5 6 7 8 9 10 11 12 13 14 15 16

088
FTUS41 KCLE 170543
TAFMFD
TAF
KMFD 170543Z 1706/1806 15006KT P6SM SCT100 BKN200
     FM171100 18008KT P6SM VCSH OVC080
     FM171300 20010KT P6SM SCT035 OVC080
      TEMPO 1713/1717 3SM -TSRA OVC035CB
     FM171700 20010G20KT P6SM SCT030 BKN050
      TEMPO 1717/1721 3SM -TSRA OVC030CB
     FM172100 20010G20KT P6SM VCTS SCT040CB BKN060
     FM180100 22008KT P6SM SCT060 BKN200=

USA.gov is the U.S. government's official web portal to all federal, state and local government web resources and services.